createdAt,value
2022-12-08T00:01:34.075Z,90.63
2022-12-08T00:04:03.672Z,90.67
2022-12-08T00:06:54.479Z,90.69
2022-12-08T00:09:39.121Z,90.75
2022-12-08T00:12:11.976Z,90.59
2022-12-08T00:14:42.628Z,90.70
2022-12-08T00:17:14.098Z,90.83
2022-12-08T00:19:43.304Z,90.53
2022-12-08T00:22:15.319Z,90.76
2022-12-08T00:24:45.641Z,90.57
2022-12-08T00:27:18.640Z,90.56
2022-12-08T00:29:46.550Z,90.64
2022-12-08T00:32:15.095Z,90.80
2022-12-08T00:34:42.961Z,91.37
2022-12-08T00:37:10.750Z,91.09
2022-12-08T00:39:38.521Z,91.28
2022-12-08T00:42:13.767Z,91.86
2022-12-08T00:44:43.875Z,91.16
2022-12-08T00:47:12.947Z,90.88
2022-12-08T00:49:41.479Z,90.71
2022-12-08T00:52:09.807Z,90.30
2022-12-08T00:54:37.686Z,90.48
2022-12-08T00:57:05.684Z,90.10
2022-12-08T00:59:33.549Z,90.03
2022-12-08T01:02:01.668Z,89.94
2022-12-08T01:04:29.645Z,89.65
2022-12-08T01:06:57.568Z,89.55
2022-12-08T01:09:25.450Z,89.53
2022-12-08T01:11:53.332Z,89.43
2022-12-08T01:14:22.464Z,89.30
2022-12-08T01:16:50.587Z,89.53
2022-12-08T01:19:18.895Z,89.63
2022-12-08T01:21:47.229Z,89.81
2022-12-08T01:24:19.128Z,90.17
2022-12-08T01:26:49.368Z,90.24
2022-12-08T01:29:17.291Z,90.47
2022-12-08T01:31:45.232Z,90.25
2022-12-08T01:34:13.302Z,90.59
2022-12-08T01:36:42.130Z,90.49
2022-12-08T01:39:15.735Z,90.54
2022-12-08T01:41:45.269Z,90.51
2022-12-08T01:44:52.895Z,90.47
2022-12-08T01:47:22.889Z,90.30
2022-12-08T01:49:51.083Z,90.22
2022-12-08T01:52:29.568Z,92.22
2022-12-08T01:55:08.723Z,91.80
2022-12-08T01:57:43.024Z,93.82
2022-12-08T02:00:17.140Z,94.45
2022-12-08T02:02:56.621Z,94.98
2022-12-08T02:05:29.554Z,95.18
2022-12-08T02:07:58.674Z,94.23
2022-12-08T02:10:30.491Z,93.68
2022-12-08T02:13:00.450Z,93.52
2022-12-08T02:15:42.915Z,93.05
2022-12-08T02:18:57.667Z,93.08
2022-12-08T02:21:59.345Z,92.28
2022-12-08T02:24:38.274Z,91.72
2022-12-08T02:27:38.431Z,91.59
2022-12-08T02:30:23.601Z,91.27
2022-12-08T02:33:23.775Z,91.34
2022-12-08T02:36:07.610Z,91.28
2022-12-08T02:38:48.738Z,90.80
2022-12-08T02:41:47.047Z,90.83
2022-12-08T02:44:24.728Z,90.97
2022-12-08T02:46:56.364Z,91.20
2022-12-08T02:49:35.293Z,91.31
2022-12-08T02:52:27.726Z,91.09
2022-12-08T02:55:02.009Z,92.49
2022-12-08T02:57:51.939Z,91.82
2022-12-08T03:00:22.467Z,91.59
2022-12-08T03:03:07.952Z,91.54
2022-12-08T03:05:55.798Z,91.33
2022-12-08T03:08:45.975Z,91.67
2022-12-08T03:11:22.139Z,91.44
2022-12-08T03:13:54.811Z,91.02
2022-12-08T03:16:27.513Z,91.43
2022-12-08T03:19:09.291Z,93.07
2022-12-08T03:21:41.254Z,93.01
2022-12-08T03:24:11.254Z,92.03
2022-12-08T03:26:48.659Z,92.31
2022-12-08T03:29:16.940Z,92.06
2022-12-08T03:31:54.002Z,92.05
2022-12-08T03:34:26.025Z,91.78
2022-12-08T03:36:54.059Z,91.91
2022-12-08T03:39:22.151Z,91.63
2022-12-08T03:41:50.363Z,91.68
2022-12-08T03:44:18.284Z,91.80
2022-12-08T03:46:46.115Z,91.86
2022-12-08T03:49:14.084Z,91.74
2022-12-08T03:51:41.852Z,91.82
2022-12-08T03:54:09.645Z,91.86
2022-12-08T03:56:39.402Z,91.77
2022-12-08T03:59:08.133Z,91.52
2022-12-08T04:01:36.346Z,91.99
2022-12-08T04:04:04.646Z,92.11
2022-12-08T04:06:32.946Z,91.62
2022-12-08T04:09:00.859Z,91.53
2022-12-08T04:11:28.837Z,91.69
2022-12-08T04:13:58.185Z,91.33
2022-12-08T04:16:27.943Z,91.44
2022-12-08T04:18:56.255Z,91.48
2022-12-08T04:21:27.824Z,91.40
2022-12-08T04:24:00.864Z,91.15
2022-12-08T04:26:29.351Z,91.68
2022-12-08T04:28:57.625Z,91.24
2022-12-08T04:31:25.530Z,91.58
2022-12-08T04:33:53.414Z,91.20
2022-12-08T04:36:21.214Z,91.13
2022-12-08T04:38:49.025Z,91.38
2022-12-08T04:41:16.866Z,91.85
2022-12-08T04:43:45.011Z,91.82
2022-12-08T04:46:12.892Z,91.76
2022-12-08T04:48:41.828Z,91.19
2022-12-08T04:51:17.093Z,91.30
2022-12-08T04:53:46.845Z,91.64
2022-12-08T04:56:16.943Z,91.14
2022-12-08T04:58:45.698Z,91.22
2022-12-08T05:01:14.280Z,91.19
2022-12-08T05:03:42.365Z,91.28
2022-12-08T05:06:13.285Z,90.87
2022-12-08T05:08:42.630Z,91.10
2022-12-08T05:11:12.262Z,90.16
2022-12-08T05:13:40.451Z,90.66
2022-12-08T05:16:11.814Z,91.01
2022-12-08T05:18:41.154Z,90.88
2022-12-08T05:21:09.933Z,90.95
2022-12-08T05:23:38.329Z,90.95
2022-12-08T05:26:06.350Z,90.98
2022-12-08T05:28:42.988Z,91.01
2022-12-08T05:31:14.342Z,90.95
2022-12-08T05:33:44.910Z,90.76
2022-12-08T05:36:14.962Z,90.48
2022-12-08T05:38:45.306Z,90.04
2022-12-08T05:41:17.066Z,89.95
2022-12-08T05:43:45.664Z,90.35
2022-12-08T05:46:14.925Z,89.97
2022-12-08T05:48:45.867Z,90.03
2022-12-08T05:51:19.890Z,89.88
2022-12-08T05:53:51.787Z,90.02
2022-12-08T05:56:21.094Z,90.06
2022-12-08T05:58:49.673Z,89.98
2022-12-08T06:01:23.076Z,90.31
2022-12-08T06:03:52.078Z,90.24
2022-12-08T06:06:20.611Z,90.33
2022-12-08T06:08:48.905Z,90.22
2022-12-08T06:11:27.204Z,90.19
2022-12-08T06:13:56.794Z,90.11
2022-12-08T06:16:26.776Z,90.09
2022-12-08T06:18:55.921Z,90.17
2022-12-08T06:21:24.372Z,90.40
2022-12-08T06:23:53.866Z,90.21
2022-12-08T06:26:22.205Z,90.12
2022-12-08T06:28:50.518Z,90.31
2022-12-08T06:31:21.352Z,89.97
2022-12-08T06:33:49.895Z,89.66
2022-12-08T06:36:19.902Z,89.58
2022-12-08T06:38:48.272Z,89.44
2022-12-08T06:41:17.202Z,89.52
2022-12-08T06:43:45.412Z,89.50
2022-12-08T06:46:16.345Z,89.52
2022-12-08T06:48:45.011Z,88.99
2022-12-08T06:51:31.608Z,89.01
2022-12-08T06:54:16.341Z,89.24
2022-12-08T06:56:44.274Z,89.43
2022-12-08T06:59:12.095Z,89.08
2022-12-08T07:01:40.137Z,88.23
2022-12-08T07:04:08.340Z,88.06
2022-12-08T07:06:36.562Z,88.75
2022-12-08T07:09:10.861Z,88.54
2022-12-08T07:12:01.382Z,88.44
2022-12-08T07:14:56.678Z,87.89
2022-12-08T07:17:38.424Z,86.70
2022-12-08T07:20:10.733Z,86.27
2022-12-08T07:23:21.508Z,86.89
2022-12-08T07:26:19.346Z,87.65
2022-12-08T07:29:26.429Z,87.54
2022-12-08T07:32:27.333Z,87.41
2022-12-08T07:36:02.123Z,87.60
2022-12-08T07:38:47.291Z,88.06
2022-12-08T07:41:23.925Z,87.87
2022-12-08T07:44:00.342Z,87.98
2022-12-08T07:46:54.219Z,87.73
2022-12-08T07:49:34.883Z,87.33
2022-12-08T07:52:06.879Z,87.04
2022-12-08T07:54:50.291Z,87.79
2022-12-08T07:57:37.183Z,87.82
2022-12-08T08:00:21.619Z,87.80
2022-12-08T08:02:56.254Z,87.79
2022-12-08T08:05:29.024Z,87.60
2022-12-08T08:07:57.655Z,86.81
2022-12-08T08:10:27.042Z,85.38
2022-12-08T08:13:06.890Z,86.19
2022-12-08T08:16:00.349Z,86.50
2022-12-08T08:18:31.473Z,85.50
2022-12-08T08:21:15.893Z,84.10
2022-12-08T08:23:57.362Z,85.21
2022-12-08T08:26:27.750Z,86.05
2022-12-08T08:28:58.058Z,84.36
2022-12-08T08:31:29.051Z,82.71
2022-12-08T08:34:05.003Z,83.27
2022-12-08T08:36:33.311Z,82.71
2022-12-08T08:39:11.550Z,82.26
2022-12-08T08:41:51.459Z,82.64
2022-12-08T08:44:25.372Z,83.33
2022-12-08T08:46:54.633Z,83.24
2022-12-08T08:49:22.704Z,83.05
2022-12-08T08:51:57.536Z,82.15
2022-12-08T08:54:25.765Z,82.93
2022-12-08T08:57:25.312Z,83.24
2022-12-08T08:59:55.759Z,82.39
2022-12-08T09:02:26.784Z,83.38
2022-12-08T09:05:23.485Z,82.82
2022-12-08T09:07:55.222Z,80.64
2022-12-08T09:10:28.536Z,80.75
2022-12-08T09:13:08.294Z,80.66
2022-12-08T09:15:55.642Z,80.21
2022-12-08T09:19:11.131Z,80.55
2022-12-08T09:22:05.207Z,80.65
2022-12-08T09:24:38.636Z,80.59
2022-12-08T09:27:20.881Z,80.62
2022-12-08T09:30:03.070Z,79.66
2022-12-08T09:32:49.890Z,79.64
2022-12-08T09:35:28.198Z,80.05
2022-12-08T09:37:56.217Z,79.70
2022-12-08T09:40:43.791Z,79.82
2022-12-08T09:43:35.343Z,80.33
2022-12-08T09:46:12.918Z,80.28
2022-12-08T09:49:10.802Z,80.01
2022-12-08T09:51:44.017Z,80.54
2022-12-08T09:54:24.214Z,80.42
2022-12-08T09:57:03.613Z,80.84
2022-12-08T09:59:36.941Z,81.25
2022-12-08T10:02:23.614Z,81.10
2022-12-08T10:05:07.155Z,80.71
2022-12-08T10:07:48.373Z,80.74
2022-12-08T10:10:32.214Z,80.41
2022-12-08T10:13:17.143Z,81.22
2022-12-08T10:17:04.664Z,81.26
2022-12-08T10:19:35.616Z,81.59
2022-12-08T10:22:15.158Z,81.37
2022-12-08T10:24:55.606Z,80.56
2022-12-08T10:27:28.298Z,79.75
2022-12-08T10:30:01.144Z,79.48
2022-12-08T10:32:36.802Z,79.18
2022-12-08T10:35:15.235Z,79.12
2022-12-08T10:37:57.851Z,79.38
2022-12-08T10:40:29.590Z,79.05
2022-12-08T10:43:01.150Z,78.31
2022-12-08T10:45:43.050Z,77.85
2022-12-08T10:48:40.696Z,77.68
2022-12-08T10:51:51.213Z,77.23
2022-12-08T10:54:39.246Z,77.43
2022-12-08T10:57:34.011Z,77.46
2022-12-08T11:00:34.655Z,78.00
2022-12-08T11:03:48.460Z,78.70
2022-12-08T11:06:37.770Z,77.95
2022-12-08T11:09:31.301Z,76.63
2022-12-08T11:12:19.588Z,77.15
2022-12-08T11:15:03.185Z,77.81
2022-12-08T11:17:39.716Z,78.31
2022-12-08T11:20:53.698Z,78.47
2022-12-08T11:48:38.390Z,82.83
2022-12-08T11:51:18.999Z,83.08
2022-12-08T11:54:06.345Z,83.46
2022-12-08T11:56:43.166Z,83.22
2022-12-08T11:59:34.507Z,83.17
2022-12-08T12:02:30.781Z,83.35
2022-12-08T12:08:54.752Z,83.46
2022-12-08T12:12:02.153Z,83.29
2022-12-08T12:14:51.491Z,82.98
2022-12-08T12:17:54.835Z,83.15
2022-12-08T12:22:03.758Z,82.73
2022-12-08T12:24:38.946Z,83.06
2022-12-08T12:27:24.193Z,82.83
2022-12-08T12:30:11.137Z,82.60
2022-12-08T12:32:45.168Z,82.68
2022-12-08T12:35:26.845Z,83.27
2022-12-08T12:38:05.521Z,83.75
2022-12-08T12:40:49.068Z,84.80
2022-12-08T12:43:31.040Z,85.46
2022-12-08T12:46:37.366Z,86.13
2022-12-08T12:49:52.602Z,86.63
2022-12-08T12:52:37.635Z,87.00
2022-12-08T12:55:58.311Z,87.62
2022-12-08T12:58:41.073Z,88.68
2022-12-08T13:01:43.426Z,87.94
2022-12-08T13:04:23.226Z,88.68
2022-12-08T13:07:13.407Z,89.25
2022-12-08T13:10:02.057Z,89.92
2022-12-08T13:12:36.951Z,90.42
2022-12-08T13:15:56.013Z,89.65
2022-12-08T13:18:38.001Z,89.23
2022-12-08T13:22:35.292Z,88.75
2022-12-08T13:30:02.397Z,88.67
2022-12-08T13:33:28.921Z,88.36
2022-12-08T13:36:24.842Z,88.03
2022-12-08T13:39:03.409Z,87.85
2022-12-08T13:41:51.981Z,87.90
2022-12-08T13:45:24.167Z,87.70
2022-12-08T13:48:42.626Z,87.45
2022-12-08T13:56:43.444Z,87.45
2022-12-08T13:57:36.040Z,87.17
2022-12-08T14:00:18.164Z,86.86
2022-12-08T14:02:51.100Z,86.55
2022-12-08T14:05:35.264Z,86.53
2022-12-08T14:08:59.311Z,86.50
2022-12-08T14:11:57.988Z,86.06
2022-12-08T14:17:36.204Z,86.16
2022-12-08T14:20:23.179Z,86.45
2022-12-08T14:22:55.235Z,86.21
2022-12-08T14:25:27.277Z,86.47
2022-12-08T14:28:08.034Z,86.43
2022-12-08T14:30:38.640Z,86.34
2022-12-08T14:33:14.622Z,86.27
2022-12-08T14:35:53.752Z,86.16
2022-12-08T14:38:24.801Z,85.93
2022-12-08T14:41:11.660Z,86.31
2022-12-08T14:43:40.908Z,86.18
2022-12-08T14:46:22.615Z,86.47
2022-12-08T14:48:55.215Z,86.26
2022-12-08T14:51:29.175Z,85.86
2022-12-08T14:54:05.445Z,86.10
2022-12-08T14:56:41.787Z,86.07
2022-12-08T14:59:34.398Z,85.99
2022-12-08T15:02:30.151Z,86.25
2022-12-08T15:05:05.963Z,86.01
2022-12-08T15:07:54.386Z,85.98
2022-12-08T15:10:27.395Z,86.90
2022-12-08T15:13:03.067Z,86.49
2022-12-08T15:15:44.876Z,87.16
2022-12-08T15:18:18.687Z,86.92
2022-12-08T15:20:51.797Z,87.73
2022-12-08T15:23:26.465Z,87.60
2022-12-08T15:25:56.147Z,87.85
2022-12-08T15:28:29.953Z,87.73
2022-12-08T15:30:59.091Z,87.61
2022-12-08T15:33:27.486Z,87.62
2022-12-08T15:35:55.413Z,87.95
2022-12-08T15:38:28.771Z,88.02
2022-12-08T15:40:59.579Z,88.01
2022-12-08T15:43:27.739Z,87.85
2022-12-08T15:46:00.344Z,87.76
2022-12-08T15:48:30.653Z,87.82
2022-12-08T15:50:59.247Z,87.57
2022-12-08T15:53:27.042Z,87.67
2022-12-08T15:56:26.507Z,87.84
2022-12-08T15:58:58.974Z,87.69
2022-12-08T16:01:27.536Z,87.58
2022-12-08T16:09:42.705Z,87.48
2022-12-08T16:13:26.662Z,87.19
2022-12-08T16:18:24.254Z,87.27
2022-12-08T16:21:31.706Z,87.83
2022-12-08T16:23:44.689Z,87.47
2022-12-08T16:26:44.358Z,87.25
2022-12-08T16:29:06.546Z,87.22
2022-12-08T16:31:34.703Z,87.17
2022-12-08T16:34:02.880Z,87.16
2022-12-08T16:36:30.616Z,87.06
2022-12-08T16:38:58.606Z,87.24
2022-12-08T16:41:39.048Z,87.33
2022-12-08T16:44:06.982Z,87.37
2022-12-08T16:46:35.983Z,87.33
2022-12-08T16:49:08.049Z,87.35
2022-12-08T16:51:35.833Z,87.37
2022-12-08T16:54:03.627Z,87.42
2022-12-08T16:56:33.488Z,87.32
2022-12-08T16:59:02.487Z,87.30
2022-12-08T17:01:30.723Z,87.31
2022-12-08T17:06:46.961Z,87.42
2022-12-08T17:09:14.935Z,87.32
2022-12-08T17:11:43.866Z,87.22
2022-12-08T17:14:13.321Z,86.95
2022-12-08T17:16:42.466Z,86.79
2022-12-08T17:19:13.127Z,86.96
2022-12-08T17:21:42.204Z,86.83
2022-12-08T17:24:10.259Z,86.80
2022-12-08T17:26:38.168Z,87.12
2022-12-08T17:29:06.064Z,87.18
2022-12-08T17:31:34.181Z,87.07
2022-12-08T17:34:03.957Z,87.21
2022-12-08T17:36:32.423Z,87.28
2022-12-08T17:39:01.273Z,87.31
2022-12-08T17:41:29.515Z,87.35
2022-12-08T17:43:57.828Z,87.37
2022-12-08T17:46:26.014Z,87.42
2022-12-08T17:48:54.213Z,87.20
2022-12-08T17:51:22.116Z,87.06
2022-12-08T17:53:50.260Z,86.85
2022-12-08T17:56:20.795Z,87.12
2022-12-08T17:58:54.245Z,87.07
2022-12-08T18:01:24.502Z,86.87
2022-12-08T18:03:52.404Z,86.28
2022-12-08T18:06:20.357Z,85.64
2022-12-08T18:08:48.320Z,85.74
2022-12-08T18:11:19.248Z,85.71
2022-12-08T18:13:48.765Z,86.54
2022-12-08T18:16:19.861Z,86.70
2022-12-08T18:18:48.317Z,86.39
2022-12-08T18:21:23.047Z,86.93
2022-12-08T18:23:51.825Z,87.32
2022-12-08T18:26:20.686Z,88.00
2022-12-08T18:28:49.055Z,88.18
2022-12-08T18:31:20.302Z,88.46
2022-12-08T18:33:49.271Z,89.53
2022-12-08T18:36:20.922Z,89.75
2022-12-08T18:38:49.698Z,89.13
2022-12-08T18:41:23.448Z,88.58
2022-12-08T18:43:52.678Z,88.45
2022-12-08T18:46:21.490Z,88.61
2022-12-08T18:48:50.956Z,88.54
2022-12-08T18:51:21.950Z,88.69
2022-12-08T18:53:50.886Z,88.79
2022-12-08T18:56:23.323Z,89.03
2022-12-08T18:58:51.423Z,88.82
2022-12-08T19:01:19.645Z,88.85
2022-12-08T19:04:11.967Z,88.77
2022-12-08T19:06:38.035Z,88.61
2022-12-08T19:09:06.726Z,88.67
2022-12-08T19:11:34.649Z,88.23
2022-12-08T19:14:02.574Z,88.16
2022-12-08T19:16:31.049Z,88.15
2022-12-08T19:18:59.148Z,88.08
2022-12-08T19:21:27.187Z,88.39
2022-12-08T19:23:58.148Z,88.45
2022-12-08T19:26:27.977Z,88.75
2022-12-08T19:28:56.069Z,89.26
2022-12-08T19:31:24.034Z,89.32
2022-12-08T19:33:52.190Z,89.16
2022-12-08T19:36:22.286Z,88.88
2022-12-08T19:39:10.279Z,88.91
2022-12-08T19:41:50.559Z,88.76
2022-12-08T19:44:40.601Z,88.81
2022-12-08T19:47:09.186Z,89.50
2022-12-08T19:49:38.216Z,90.03
2022-12-08T19:52:06.516Z,89.88
2022-12-08T19:54:34.689Z,89.77
2022-12-08T19:57:02.788Z,89.57
2022-12-08T19:59:30.679Z,89.25
2022-12-08T20:01:59.089Z,89.62
2022-12-08T20:04:27.443Z,89.93
2022-12-08T20:06:56.715Z,89.62
2022-12-08T20:09:25.660Z,89.54
2022-12-08T20:11:54.888Z,89.49
2022-12-08T20:14:23.532Z,89.36
2022-12-08T20:16:51.617Z,89.30
2022-12-08T20:19:19.796Z,89.26
2022-12-08T20:21:48.743Z,89.32
2022-12-08T20:24:17.182Z,89.12
2022-12-08T20:26:45.037Z,89.11
2022-12-08T20:29:16.991Z,89.37
2022-12-08T20:31:45.961Z,89.20
2022-12-08T20:34:16.016Z,89.43
2022-12-08T20:36:45.188Z,89.59
2022-12-08T20:39:15.849Z,90.10
2022-12-08T20:41:45.928Z,89.85
2022-12-08T20:44:13.808Z,90.10
2022-12-08T20:46:49.233Z,90.66
2022-12-08T20:49:17.620Z,90.29
2022-12-08T20:51:47.303Z,90.12
2022-12-08T20:54:16.328Z,90.13
2022-12-08T20:56:48.297Z,89.72
2022-12-08T20:59:18.164Z,90.68
2022-12-08T21:01:46.388Z,90.85
2022-12-08T21:04:15.811Z,90.48
2022-12-08T21:06:43.999Z,90.51
2022-12-08T21:09:12.145Z,91.71
2022-12-08T21:11:40.228Z,91.17
2022-12-08T21:14:08.270Z,92.29
2022-12-08T21:16:38.773Z,93.27
2022-12-08T21:19:06.729Z,93.49
2022-12-08T21:21:34.614Z,93.38
2022-12-08T21:24:05.192Z,94.59
2022-12-08T21:26:33.202Z,94.02
2022-12-08T21:29:01.720Z,93.69
2022-12-08T21:31:32.115Z,93.91
2022-12-08T21:34:01.532Z,94.10
2022-12-08T21:36:31.056Z,94.16
2022-12-08T21:39:02.880Z,94.01
2022-12-08T21:41:48.720Z,93.71
2022-12-08T21:44:18.742Z,93.56
2022-12-08T21:46:46.953Z,93.11
2022-12-08T21:49:15.425Z,93.03
2022-12-08T21:51:43.493Z,92.97
2022-12-08T21:54:18.381Z,93.21
2022-12-08T21:56:48.386Z,92.79
2022-12-08T21:59:18.148Z,92.85
2022-12-08T22:01:46.809Z,93.30
2022-12-08T22:04:18.659Z,92.72
2022-12-08T22:06:47.485Z,92.73
2022-12-08T22:09:16.011Z,92.82
2022-12-08T22:11:44.460Z,93.10
2022-12-08T22:14:14.830Z,93.17
2022-12-08T22:16:44.185Z,92.78
2022-12-08T22:19:12.695Z,92.81
2022-12-08T22:21:40.783Z,92.53
2022-12-08T22:24:09.780Z,92.55
2022-12-08T22:26:37.844Z,92.40
2022-12-08T22:29:05.635Z,92.52
2022-12-08T22:31:33.563Z,92.62
2022-12-08T22:34:01.615Z,92.69
2022-12-08T22:36:29.845Z,92.72
2022-12-08T22:38:58.043Z,92.73
2022-12-08T22:41:26.051Z,92.39
2022-12-08T22:43:54.085Z,92.34
2022-12-08T22:46:25.186Z,92.97
2022-12-08T22:48:54.362Z,93.85
2022-12-08T22:51:22.130Z,93.43
2022-12-08T22:53:50.904Z,93.68
2022-12-08T22:56:19.696Z,93.15
2022-12-08T22:58:47.834Z,93.58
2022-12-08T23:01:26.262Z,93.88
2022-12-08T23:03:54.337Z,93.50
2022-12-08T23:06:22.773Z,93.63
2022-12-08T23:08:51.613Z,93.34
2022-12-08T23:11:21.866Z,93.11
2022-12-08T23:13:49.970Z,93.50
2022-12-08T23:16:18.197Z,93.37
2022-12-08T23:18:46.956Z,93.20
2022-12-08T23:21:17.731Z,93.11
2022-12-08T23:23:45.824Z,93.17
2022-12-08T23:26:28.122Z,93.22
2022-12-08T23:28:57.862Z,93.06
2022-12-08T23:31:27.260Z,92.97
2022-12-08T23:33:56.066Z,92.98
2022-12-08T23:36:26.518Z,92.84
2022-12-08T23:38:54.828Z,92.83
2022-12-08T23:41:22.639Z,92.93
2022-12-08T23:43:54.266Z,92.78
2022-12-08T23:46:25.508Z,92.61
2022-12-08T23:48:53.426Z,92.43
2022-12-08T23:51:22.049Z,91.99
2022-12-08T23:53:49.864Z,91.92
2022-12-08T23:56:18.444Z,92.12
2022-12-08T23:58:46.598Z,93.03
